sensor_id;sensor_type;location;lat;lon;timestamp;P1;durP1;ratioP1;P2;durP2;ratioP2
70150;SDS011;57517;43.562;19.540;2023-07-28T00:01:38;6.65;;;4.80;;
70150;SDS011;57517;43.562;19.540;2023-07-28T00:04:04;7.43;;;5.18;;
70150;SDS011;57517;43.562;19.540;2023-07-28T00:06:32;8.98;;;6.13;;
70150;SDS011;57517;43.562;19.540;2023-07-28T00:08:58;8.00;;;5.90;;
70150;SDS011;57517;43.562;19.540;2023-07-28T00:11:24;6.35;;;5.00;;
70150;SDS011;57517;43.562;19.540;2023-07-28T00:13:50;6.75;;;5.18;;
70150;SDS011;57517;43.562;19.540;2023-07-28T00:16:15;6.90;;;4.93;;
70150;SDS011;57517;43.562;19.540;2023-07-28T00:18:41;8.23;;;5.38;;
70150;SDS011;57517;43.562;19.540;2023-07-28T00:21:07;7.72;;;4.95;;
70150;SDS011;57517;43.562;19.540;2023-07-28T00:23:33;7.03;;;5.78;;
70150;SDS011;57517;43.562;19.540;2023-07-28T00:25:58;8.43;;;5.63;;
70150;SDS011;57517;43.562;19.540;2023-07-28T00:28:24;6.50;;;5.68;;
70150;SDS011;57517;43.562;19.540;2023-07-28T00:30:50;8.50;;;6.10;;
70150;SDS011;57517;43.562;19.540;2023-07-28T00:33:16;7.80;;;5.70;;
70150;SDS011;57517;43.562;19.540;2023-07-28T00:35:42;9.50;;;5.70;;
70150;SDS011;57517;43.562;19.540;2023-07-28T00:38:08;6.78;;;5.05;;
70150;SDS011;57517;43.562;19.540;2023-07-28T00:40:37;9.07;;;5.30;;
70150;SDS011;57517;43.562;19.540;2023-07-28T00:43:03;11.13;;;5.45;;
70150;SDS011;57517;43.562;19.540;2023-07-28T00:45:29;7.22;;;5.40;;
70150;SDS011;57517;43.562;19.540;2023-07-28T00:47:56;8.02;;;5.88;;
70150;SDS011;57517;43.562;19.540;2023-07-28T00:50:25;8.77;;;5.93;;
70150;SDS011;57517;43.562;19.540;2023-07-28T00:52:51;7.18;;;5.13;;
70150;SDS011;57517;43.562;19.540;2023-07-28T00:55:17;6.93;;;6.07;;
70150;SDS011;57517;43.562;19.540;2023-07-28T00:57:43;8.73;;;5.40;;
70150;SDS011;57517;43.562;19.540;2023-07-28T01:00:10;7.63;;;5.60;;
70150;SDS011;57517;43.562;19.540;2023-07-28T01:02:36;7.82;;;5.43;;
70150;SDS011;57517;43.562;19.540;2023-07-28T01:05:02;7.60;;;6.32;;
70150;SDS011;57517;43.562;19.540;2023-07-28T01:10:14;9.45;;;5.93;;
70150;SDS011;57517;43.562;19.540;2023-07-28T01:12:43;8.40;;;5.45;;
70150;SDS011;57517;43.562;19.540;2023-07-28T01:15:09;8.75;;;5.43;;
70150;SDS011;57517;43.562;19.540;2023-07-28T01:17:35;7.60;;;5.28;;
70150;SDS011;57517;43.562;19.540;2023-07-28T01:20:01;7.57;;;5.43;;
70150;SDS011;57517;43.562;19.540;2023-07-28T01:28:03;7.55;;;5.68;;
70150;SDS011;57517;43.562;19.540;2023-07-28T01:30:29;7.78;;;5.30;;
70150;SDS011;57517;43.562;19.540;2023-07-28T01:32:55;7.95;;;5.78;;
70150;SDS011;57517;43.562;19.540;2023-07-28T01:35:22;8.00;;;5.78;;
70150;SDS011;57517;43.562;19.540;2023-07-28T01:37:48;8.65;;;5.25;;
70150;SDS011;57517;43.562;19.540;2023-07-28T01:40:18;6.80;;;5.50;;
70150;SDS011;57517;43.562;19.540;2023-07-28T01:42:45;7.90;;;5.60;;
70150;SDS011;57517;43.562;19.540;2023-07-28T01:45:11;8.02;;;5.75;;
70150;SDS011;57517;43.562;19.540;2023-07-28T01:47:37;7.25;;;6.20;;
70150;SDS011;57517;43.562;19.540;2023-07-28T01:50:02;7.28;;;5.63;;
70150;SDS011;57517;43.562;19.540;2023-07-28T01:52:28;9.05;;;6.07;;
70150;SDS011;57517;43.562;19.540;2023-07-28T01:54:54;6.07;;;5.28;;
70150;SDS011;57517;43.562;19.540;2023-07-28T01:57:20;6.25;;;4.97;;
70150;SDS011;57517;43.562;19.540;2023-07-28T01:59:46;7.53;;;5.63;;
70150;SDS011;57517;43.562;19.540;2023-07-28T02:02:12;8.02;;;5.40;;
70150;SDS011;57517;43.562;19.540;2023-07-28T02:04:37;7.85;;;5.60;;
70150;SDS011;57517;43.562;19.540;2023-07-28T02:07:03;7.80;;;5.53;;
70150;SDS011;57517;43.562;19.540;2023-07-28T02:09:29;8.02;;;5.25;;
70150;SDS011;57517;43.562;19.540;2023-07-28T02:11:55;8.85;;;5.38;;
70150;SDS011;57517;43.562;19.540;2023-07-28T02:14:20;7.10;;;5.38;;
70150;SDS011;57517;43.562;19.540;2023-07-28T02:16:46;7.72;;;5.40;;
70150;SDS011;57517;43.562;19.540;2023-07-28T02:19:12;7.90;;;4.97;;
70150;SDS011;57517;43.562;19.540;2023-07-28T02:21:38;6.57;;;5.40;;
70150;SDS011;57517;43.562;19.540;2023-07-28T02:24:03;9.60;;;5.78;;
70150;SDS011;57517;43.562;19.540;2023-07-28T02:26:29;7.05;;;5.70;;
70150;SDS011;57517;43.562;19.540;2023-07-28T03:54:43;7.95;;;6.50;;
70150;SDS011;57517;43.562;19.540;2023-07-28T03:57:09;7.50;;;6.03;;
70150;SDS011;57517;43.562;19.540;2023-07-28T03:59:35;7.88;;;6.10;;
70150;SDS011;57517;43.562;19.540;2023-07-28T04:02:01;9.20;;;6.32;;
70150;SDS011;57517;43.562;19.540;2023-07-28T04:04:26;7.55;;;5.60;;
70150;SDS011;57517;43.562;19.540;2023-07-28T04:06:52;9.35;;;6.70;;
70150;SDS011;57517;43.562;19.540;2023-07-28T04:09:18;9.10;;;6.47;;
70150;SDS011;57517;43.562;19.540;2023-07-28T04:11:45;8.32;;;6.32;;
70150;SDS011;57517;43.562;19.540;2023-07-28T04:14:11;8.95;;;6.85;;
70150;SDS011;57517;43.562;19.540;2023-07-28T04:16:37;8.32;;;6.78;;
70150;SDS011;57517;43.562;19.540;2023-07-28T04:19:03;8.45;;;6.75;;
70150;SDS011;57517;43.562;19.540;2023-07-28T04:21:29;8.63;;;7.20;;
70150;SDS011;57517;43.562;19.540;2023-07-28T04:23:55;9.93;;;6.80;;
70150;SDS011;57517;43.562;19.540;2023-07-28T04:26:21;9.45;;;6.57;;
70150;SDS011;57517;43.562;19.540;2023-07-28T04:28:49;10.40;;;6.55;;
70150;SDS011;57517;43.562;19.540;2023-07-28T04:31:16;10.75;;;7.00;;
70150;SDS011;57517;43.562;19.540;2023-07-28T04:33:42;7.28;;;5.93;;
70150;SDS011;57517;43.562;19.540;2023-07-28T04:36:08;8.10;;;6.45;;
70150;SDS011;57517;43.562;19.540;2023-07-28T04:38:34;8.20;;;5.93;;
70150;SDS011;57517;43.562;19.540;2023-07-28T04:58:55;8.13;;;7.30;;
70150;SDS011;57517;43.562;19.540;2023-07-28T05:01:21;8.75;;;6.72;;
70150;SDS011;57517;43.562;19.540;2023-07-28T05:03:47;7.40;;;6.60;;
70150;SDS011;57517;43.562;19.540;2023-07-28T05:06:12;8.85;;;7.03;;
70150;SDS011;57517;43.562;19.540;2023-07-28T05:08:39;9.50;;;6.95;;
70150;SDS011;57517;43.562;19.540;2023-07-28T05:11:05;9.10;;;7.25;;
70150;SDS011;57517;43.562;19.540;2023-07-28T05:13:31;9.85;;;7.05;;
70150;SDS011;57517;43.562;19.540;2023-07-28T05:15:56;11.20;;;7.03;;
70150;SDS011;57517;43.562;19.540;2023-07-28T05:18:22;8.95;;;6.80;;
70150;SDS011;57517;43.562;19.540;2023-07-28T05:20:48;7.57;;;6.70;;
70150;SDS011;57517;43.562;19.540;2023-07-28T05:23:14;9.85;;;7.32;;
70150;SDS011;57517;43.562;19.540;2023-07-28T05:25:39;10.35;;;8.10;;
70150;SDS011;57517;43.562;19.540;2023-07-28T05:28:06;9.48;;;7.60;;
70150;SDS011;57517;43.562;19.540;2023-07-28T05:30:32;9.68;;;6.57;;
70150;SDS011;57517;43.562;19.540;2023-07-28T05:32:57;11.02;;;6.65;;
70150;SDS011;57517;43.562;19.540;2023-07-28T05:35:23;9.05;;;7.55;;
70150;SDS011;57517;43.562;19.540;2023-07-28T05:37:49;9.93;;;7.53;;
70150;SDS011;57517;43.562;19.540;2023-07-28T05:40:15;8.90;;;7.45;;
70150;SDS011;57517;43.562;19.540;2023-07-28T05:42:40;11.10;;;7.45;;
70150;SDS011;57517;43.562;19.540;2023-07-28T05:45:06;8.23;;;7.18;;
70150;SDS011;57517;43.562;19.540;2023-07-28T05:47:33;8.20;;;6.55;;
70150;SDS011;57517;43.562;19.540;2023-07-28T05:49:59;9.23;;;6.97;;
70150;SDS011;57517;43.562;19.540;2023-07-28T05:52:25;8.48;;;6.88;;
70150;SDS011;57517;43.562;19.540;2023-07-28T05:54:51;8.70;;;6.93;;
70150;SDS011;57517;43.562;19.540;2023-07-28T05:57:16;9.63;;;7.57;;
70150;SDS011;57517;43.562;19.540;2023-07-28T05:59:42;11.02;;;10.02;;
70150;SDS011;57517;43.562;19.540;2023-07-28T06:02:08;11.90;;;11.00;;
70150;SDS011;57517;43.562;19.540;2023-07-28T06:04:34;12.00;;;10.98;;
70150;SDS011;57517;43.562;19.540;2023-07-28T06:06:59;11.60;;;10.70;;
70150;SDS011;57517;43.562;19.540;2023-07-28T06:09:25;9.63;;;8.93;;
70150;SDS011;57517;43.562;19.540;2023-07-28T06:11:52;10.95;;;10.15;;
70150;SDS011;57517;43.562;19.540;2023-07-28T06:14:18;11.38;;;10.57;;
70150;SDS011;57517;43.562;19.540;2023-07-28T06:16:44;11.82;;;11.00;;
70150;SDS011;57517;43.562;19.540;2023-07-28T06:19:09;12.23;;;11.43;;
70150;SDS011;57517;43.562;19.540;2023-07-28T06:21:35;11.75;;;10.85;;
70150;SDS011;57517;43.562;19.540;2023-07-28T06:24:01;13.05;;;12.07;;
70150;SDS011;57517;43.562;19.540;2023-07-28T06:26:27;15.77;;;14.20;;
70150;SDS011;57517;43.562;19.540;2023-07-28T06:28:53;13.68;;;12.68;;
70150;SDS011;57517;43.562;19.540;2023-07-28T06:31:19;13.93;;;12.85;;
70150;SDS011;57517;43.562;19.540;2023-07-28T06:33:46;14.93;;;13.85;;
70150;SDS011;57517;43.562;19.540;2023-07-28T06:36:13;14.25;;;13.25;;
70150;SDS011;57517;43.562;19.540;2023-07-28T06:38:38;13.77;;;12.98;;
70150;SDS011;57517;43.562;19.540;2023-07-28T06:41:05;14.43;;;13.30;;
70150;SDS011;57517;43.562;19.540;2023-07-28T06:43:31;13.52;;;12.52;;
70150;SDS011;57517;43.562;19.540;2023-07-28T06:45:57;14.20;;;12.85;;
70150;SDS011;57517;43.562;19.540;2023-07-28T06:48:23;13.98;;;13.00;;
70150;SDS011;57517;43.562;19.540;2023-07-28T06:50:49;16.20;;;15.13;;
70150;SDS011;57517;43.562;19.540;2023-07-28T06:53:15;13.60;;;12.80;;
70150;SDS011;57517;43.562;19.540;2023-07-28T06:55:42;18.60;;;17.20;;
70150;SDS011;57517;43.562;19.540;2023-07-28T06:58:08;25.85;;;23.40;;
70150;SDS011;57517;43.562;19.540;2023-07-28T07:00:34;29.95;;;25.05;;
70150;SDS011;57517;43.562;19.540;2023-07-28T07:03:00;16.38;;;15.25;;
70150;SDS011;57517;43.562;19.540;2023-07-28T07:05:26;18.25;;;16.65;;
70150;SDS011;57517;43.562;19.540;2023-07-28T07:07:52;14.85;;;13.75;;
70150;SDS011;57517;43.562;19.540;2023-07-28T07:10:19;13.75;;;12.75;;
70150;SDS011;57517;43.562;19.540;2023-07-28T07:12:45;21.77;;;19.42;;
70150;SDS011;57517;43.562;19.540;2023-07-28T07:15:12;16.70;;;15.27;;
70150;SDS011;57517;43.562;19.540;2023-07-28T07:17:38;14.25;;;13.20;;
70150;SDS011;57517;43.562;19.540;2023-07-28T07:20:05;12.55;;;11.55;;
70150;SDS011;57517;43.562;19.540;2023-07-28T07:22:31;12.57;;;11.77;;
70150;SDS011;57517;43.562;19.540;2023-07-28T07:24:57;16.13;;;14.85;;
70150;SDS011;57517;43.562;19.540;2023-07-28T07:27:24;12.85;;;11.80;;
70150;SDS011;57517;43.562;19.540;2023-07-28T07:29:50;17.63;;;15.98;;
70150;SDS011;57517;43.562;19.540;2023-07-28T07:32:16;13.02;;;12.05;;
70150;SDS011;57517;43.562;19.540;2023-07-28T07:34:42;22.33;;;20.08;;
70150;SDS011;57517;43.562;19.540;2023-07-28T07:37:09;13.68;;;12.52;;
70150;SDS011;57517;43.562;19.540;2023-07-28T07:39:35;12.90;;;11.90;;
70150;SDS011;57517;43.562;19.540;2023-07-28T07:42:01;11.80;;;11.00;;
70150;SDS011;57517;43.562;19.540;2023-07-28T07:44:27;14.77;;;13.68;;
70150;SDS011;57517;43.562;19.540;2023-07-28T07:46:54;14.05;;;12.75;;
70150;SDS011;57517;43.562;19.540;2023-07-28T07:49:21;14.73;;;13.45;;
70150;SDS011;57517;43.562;19.540;2023-07-28T07:51:47;14.88;;;13.60;;
70150;SDS011;57517;43.562;19.540;2023-07-28T07:54:14;15.85;;;14.45;;
70150;SDS011;57517;43.562;19.540;2023-07-28T07:56:43;15.02;;;13.73;;
70150;SDS011;57517;43.562;19.540;2023-07-28T07:59:09;19.67;;;17.88;;
70150;SDS011;57517;43.562;19.540;2023-07-28T08:01:36;13.90;;;10.98;;
70150;SDS011;57517;43.562;19.540;2023-07-28T08:04:02;25.60;;;15.85;;
70150;SDS011;57517;43.562;19.540;2023-07-28T08:06:28;11.25;;;9.00;;
70150;SDS011;57517;43.562;19.540;2023-07-28T08:08:54;14.45;;;10.32;;
70150;SDS011;57517;43.562;19.540;2023-07-28T08:11:21;14.35;;;9.98;;
70150;SDS011;57517;43.562;19.540;2023-07-28T08:13:47;9.52;;;7.55;;
70150;SDS011;57517;43.562;19.540;2023-07-28T08:16:13;8.55;;;7.50;;
70150;SDS011;57517;43.562;19.540;2023-07-28T08:18:39;9.70;;;8.20;;
70150;SDS011;57517;43.562;19.540;2023-07-28T08:21:05;10.63;;;7.82;;
70150;SDS011;57517;43.562;19.540;2023-07-28T08:23:31;8.90;;;7.95;;
70150;SDS011;57517;43.562;19.540;2023-07-28T08:25:56;10.60;;;8.23;;
70150;SDS011;57517;43.562;19.540;2023-07-28T08:28:22;7.57;;;6.78;;
70150;SDS011;57517;43.562;19.540;2023-07-28T08:30:54;12.68;;;9.23;;
70150;SDS011;57517;43.562;19.540;2023-07-28T08:33:24;10.30;;;8.35;;
70150;SDS011;57517;43.562;19.540;2023-07-28T08:35:50;9.93;;;7.90;;
70150;SDS011;57517;43.562;19.540;2023-07-28T08:38:16;11.15;;;9.00;;
70150;SDS011;57517;43.562;19.540;2023-07-28T08:40:43;10.90;;;7.97;;
70150;SDS011;57517;43.562;19.540;2023-07-28T08:43:09;15.18;;;9.88;;
70150;SDS011;57517;43.562;19.540;2023-07-28T08:45:35;9.00;;;6.90;;
70150;SDS011;57517;43.562;19.540;2023-07-28T08:48:01;9.45;;;8.43;;
70150;SDS011;57517;43.562;19.540;2023-07-28T08:50:27;14.18;;;10.77;;
70150;SDS011;57517;43.562;19.540;2023-07-28T08:52:53;25.58;;;16.38;;
70150;SDS011;57517;43.562;19.540;2023-07-28T08:55:22;18.80;;;12.35;;
70150;SDS011;57517;43.562;19.540;2023-07-28T08:57:48;10.90;;;9.55;;
70150;SDS011;57517;43.562;19.540;2023-07-28T09:00:14;16.65;;;11.82;;
70150;SDS011;57517;43.562;19.540;2023-07-28T09:02:42;9.35;;;7.18;;
70150;SDS011;57517;43.562;19.540;2023-07-28T09:05:18;9.80;;;8.80;;
70150;SDS011;57517;43.562;19.540;2023-07-28T09:07:45;9.23;;;7.60;;
70150;SDS011;57517;43.562;19.540;2023-07-28T09:10:12;13.43;;;8.02;;
70150;SDS011;57517;43.562;19.540;2023-07-28T09:12:44;10.95;;;7.55;;
70150;SDS011;57517;43.562;19.540;2023-07-28T09:15:11;8.75;;;6.80;;
70150;SDS011;57517;43.562;19.540;2023-07-28T09:17:41;12.65;;;9.70;;
70150;SDS011;57517;43.562;19.540;2023-07-28T09:20:08;14.38;;;9.80;;
70150;SDS011;57517;43.562;19.540;2023-07-28T09:22:44;9.37;;;7.33;;
70150;SDS011;57517;43.562;19.540;2023-07-28T09:25:13;9.73;;;7.40;;
70150;SDS011;57517;43.562;19.540;2023-07-28T09:27:41;7.25;;;6.55;;
70150;SDS011;57517;43.562;19.540;2023-07-28T09:30:14;12.75;;;8.88;;
70150;SDS011;57517;43.562;19.540;2023-07-28T09:32:43;19.73;;;11.50;;
70150;SDS011;57517;43.562;19.540;2023-07-28T09:35:13;9.18;;;8.15;;
70150;SDS011;57517;43.562;19.540;2023-07-28T09:37:39;11.32;;;7.03;;
70150;SDS011;57517;43.562;19.540;2023-07-28T09:40:08;38.00;;;19.85;;
70150;SDS011;57517;43.562;19.540;2023-07-28T09:42:38;17.08;;;13.35;;
70150;SDS011;57517;43.562;19.540;2023-07-28T09:45:05;14.20;;;10.48;;
70150;SDS011;57517;43.562;19.540;2023-07-28T09:47:33;11.07;;;8.35;;
70150;SDS011;57517;43.562;19.540;2023-07-28T09:50:01;12.70;;;8.85;;
70150;SDS011;57517;43.562;19.540;2023-07-28T09:52:30;7.82;;;6.70;;
70150;SDS011;57517;43.562;19.540;2023-07-28T09:55:02;14.60;;;10.27;;
70150;SDS011;57517;43.562;19.540;2023-07-28T09:57:36;15.60;;;11.23;;
70150;SDS011;57517;43.562;19.540;2023-07-28T10:00:06;8.93;;;6.05;;
70150;SDS011;57517;43.562;19.540;2023-07-28T10:02:35;33.17;;;18.70;;
70150;SDS011;57517;43.562;19.540;2023-07-28T10:05:02;13.20;;;7.45;;
70150;SDS011;57517;43.562;19.540;2023-07-28T10:07:29;10.50;;;6.50;;
70150;SDS011;57517;43.562;19.540;2023-07-28T10:09:55;12.40;;;5.38;;
70150;SDS011;57517;43.562;19.540;2023-07-28T10:12:25;6.63;;;4.80;;
70150;SDS011;57517;43.562;19.540;2023-07-28T10:15:01;12.88;;;8.95;;
70150;SDS011;57517;43.562;19.540;2023-07-28T10:17:32;4.95;;;3.80;;
70150;SDS011;57517;43.562;19.540;2023-07-28T10:20:02;6.90;;;5.05;;
70150;SDS011;57517;43.562;19.540;2023-07-28T10:22:43;5.82;;;4.13;;
70150;SDS011;57517;43.562;19.540;2023-07-28T10:25:13;5.97;;;3.80;;
70150;SDS011;57517;43.562;19.540;2023-07-28T10:27:50;21.40;;;9.88;;
70150;SDS011;57517;43.562;19.540;2023-07-28T10:30:16;13.52;;;8.25;;
70150;SDS011;57517;43.562;19.540;2023-07-28T10:32:42;10.20;;;7.30;;
70150;SDS011;57517;43.562;19.540;2023-07-28T10:37:38;5.13;;;3.60;;
70150;SDS011;57517;43.562;19.540;2023-07-28T10:42:52;5.70;;;4.13;;
70150;SDS011;57517;43.562;19.540;2023-07-28T10:45:19;12.15;;;6.35;;
70150;SDS011;57517;43.562;19.540;2023-07-28T10:47:46;6.35;;;4.40;;
70150;SDS011;57517;43.562;19.540;2023-07-28T10:50:13;17.88;;;6.57;;
70150;SDS011;57517;43.562;19.540;2023-07-28T10:52:42;5.45;;;3.95;;
70150;SDS011;57517;43.562;19.540;2023-07-28T10:55:42;9.27;;;5.68;;
70150;SDS011;57517;43.562;19.540;2023-07-28T10:58:01;7.13;;;5.13;;
70150;SDS011;57517;43.562;19.540;2023-07-28T11:00:27;6.28;;;4.28;;
70150;SDS011;57517;43.562;19.540;2023-07-28T11:02:54;6.90;;;4.55;;
70150;SDS011;57517;43.562;19.540;2023-07-28T11:05:27;6.28;;;4.47;;
70150;SDS011;57517;43.562;19.540;2023-07-28T11:07:55;10.45;;;3.90;;
70150;SDS011;57517;43.562;19.540;2023-07-28T11:10:22;10.55;;;7.13;;
70150;SDS011;57517;43.562;19.540;2023-07-28T11:12:49;11.52;;;7.40;;
70150;SDS011;57517;43.562;19.540;2023-07-28T11:15:17;10.55;;;7.35;;
70150;SDS011;57517;43.562;19.540;2023-07-28T11:17:45;6.78;;;5.15;;
70150;SDS011;57517;43.562;19.540;2023-07-28T11:20:22;8.75;;;5.25;;
70150;SDS011;57517;43.562;19.540;2023-07-28T11:22:57;6.13;;;4.20;;
70150;SDS011;57517;43.562;19.540;2023-07-28T11:25:25;5.32;;;3.60;;
70150;SDS011;57517;43.562;19.540;2023-07-28T11:27:54;4.57;;;3.20;;
70150;SDS011;57517;43.562;19.540;2023-07-28T11:30:21;4.95;;;3.35;;
70150;SDS011;57517;43.562;19.540;2023-07-28T11:32:49;5.55;;;3.67;;
70150;SDS011;57517;43.562;19.540;2023-07-28T11:35:17;6.18;;;3.78;;
70150;SDS011;57517;43.562;19.540;2023-07-28T11:37:48;6.63;;;3.78;;
70150;SDS011;57517;43.562;19.540;2023-07-28T11:40:16;4.93;;;3.17;;
70150;SDS011;57517;43.562;19.540;2023-07-28T11:45:14;5.60;;;3.25;;
70150;SDS011;57517;43.562;19.540;2023-07-28T11:50:40;5.38;;;4.20;;
70150;SDS011;57517;43.562;19.540;2023-07-28T11:53:06;10.20;;;6.63;;
70150;SDS011;57517;43.562;19.540;2023-07-28T11:55:37;8.38;;;4.90;;
70150;SDS011;57517;43.562;19.540;2023-07-28T11:58:06;18.30;;;12.57;;
70150;SDS011;57517;43.562;19.540;2023-07-28T12:00:34;4.95;;;2.90;;
70150;SDS011;57517;43.562;19.540;2023-07-28T12:03:07;4.57;;;2.95;;
70150;SDS011;57517;43.562;19.540;2023-07-28T12:05:41;4.97;;;3.05;;
70150;SDS011;57517;43.562;19.540;2023-07-28T12:08:38;7.50;;;5.32;;
70150;SDS011;57517;43.562;19.540;2023-07-28T12:11:05;5.55;;;3.83;;
70150;SDS011;57517;43.562;19.540;2023-07-28T12:13:46;6.28;;;4.85;;
70150;SDS011;57517;43.562;19.540;2023-07-28T12:16:31;7.97;;;6.60;;
70150;SDS011;57517;43.562;19.540;2023-07-28T12:19:03;38.03;;;31.25;;
70150;SDS011;57517;43.562;19.540;2023-07-28T12:21:30;35.97;;;28.73;;
70150;SDS011;57517;43.562;19.540;2023-07-28T12:23:56;42.55;;;32.72;;
70150;SDS011;57517;43.562;19.540;2023-07-28T12:26:22;11.60;;;8.68;;
70150;SDS011;57517;43.562;19.540;2023-07-28T12:28:48;12.32;;;10.27;;
70150;SDS011;57517;43.562;19.540;2023-07-28T12:31:13;18.42;;;14.88;;
70150;SDS011;57517;43.562;19.540;2023-07-28T12:33:39;19.95;;;14.45;;
70150;SDS011;57517;43.562;19.540;2023-07-28T12:36:05;11.18;;;7.63;;
70150;SDS011;57517;43.562;19.540;2023-07-28T12:38:31;37.92;;;32.78;;
70150;SDS011;57517;43.562;19.540;2023-07-28T12:40:57;28.15;;;23.60;;
70150;SDS011;57517;43.562;19.540;2023-07-28T12:43:23;19.23;;;16.55;;
70150;SDS011;57517;43.562;19.540;2023-07-28T12:45:50;24.40;;;19.98;;
70150;SDS011;57517;43.562;19.540;2023-07-28T12:48:18;20.90;;;16.15;;
70150;SDS011;57517;43.562;19.540;2023-07-28T12:50:44;13.52;;;9.15;;
70150;SDS011;57517;43.562;19.540;2023-07-28T12:53:10;12.88;;;9.50;;
70150;SDS011;57517;43.562;19.540;2023-07-28T12:55:35;8.20;;;6.07;;
70150;SDS011;57517;43.562;19.540;2023-07-28T12:58:02;7.85;;;5.03;;
70150;SDS011;57517;43.562;19.540;2023-07-28T13:00:28;6.05;;;3.75;;
70150;SDS011;57517;43.562;19.540;2023-07-28T13:02:55;10.00;;;5.50;;
70150;SDS011;57517;43.562;19.540;2023-07-28T13:05:27;22.55;;;12.27;;
70150;SDS011;57517;43.562;19.540;2023-07-28T13:07:57;17.25;;;11.75;;
70150;SDS011;57517;43.562;19.540;2023-07-28T13:10:22;13.65;;;8.65;;
70150;SDS011;57517;43.562;19.540;2023-07-28T13:12:48;13.30;;;7.18;;
70150;SDS011;57517;43.562;19.540;2023-07-28T13:15:14;12.27;;;7.05;;
70150;SDS011;57517;43.562;19.540;2023-07-28T13:17:40;7.35;;;4.07;;
70150;SDS011;57517;43.562;19.540;2023-07-28T13:20:06;9.02;;;6.10;;
70150;SDS011;57517;43.562;19.540;2023-07-28T13:22:33;10.95;;;7.32;;
70150;SDS011;57517;43.562;19.540;2023-07-28T13:24:58;46.05;;;26.55;;
70150;SDS011;57517;43.562;19.540;2023-07-28T13:27:24;8.63;;;5.57;;
70150;SDS011;57517;43.562;19.540;2023-07-28T13:29:50;17.17;;;10.10;;
70150;SDS011;57517;43.562;19.540;2023-07-28T13:32:22;9.90;;;5.95;;
70150;SDS011;57517;43.562;19.540;2023-07-28T13:34:49;16.08;;;9.18;;
70150;SDS011;57517;43.562;19.540;2023-07-28T13:37:15;14.45;;;8.82;;
70150;SDS011;57517;43.562;19.540;2023-07-28T13:39:41;11.95;;;6.68;;
70150;SDS011;57517;43.562;19.540;2023-07-28T13:42:08;17.52;;;11.35;;
70150;SDS011;57517;43.562;19.540;2023-07-28T13:44:34;7.13;;;5.30;;
70150;SDS011;57517;43.562;19.540;2023-07-28T13:47:00;10.27;;;6.93;;
70150;SDS011;57517;43.562;19.540;2023-07-28T13:49:26;5.68;;;3.80;;
70150;SDS011;57517;43.562;19.540;2023-07-28T13:51:51;16.98;;;10.27;;
70150;SDS011;57517;43.562;19.540;2023-07-28T13:54:17;9.95;;;6.57;;
70150;SDS011;57517;43.562;19.540;2023-07-28T13:56:43;12.77;;;9.13;;
70150;SDS011;57517;43.562;19.540;2023-07-28T13:59:09;21.52;;;8.43;;
70150;SDS011;57517;43.562;19.540;2023-07-28T14:01:34;35.67;;;20.02;;
70150;SDS011;57517;43.562;19.540;2023-07-28T14:04:00;9.60;;;6.43;;
70150;SDS011;57517;43.562;19.540;2023-07-28T14:06:26;11.32;;;7.03;;
70150;SDS011;57517;43.562;19.540;2023-07-28T14:08:52;21.48;;;12.63;;
70150;SDS011;57517;43.562;19.540;2023-07-28T14:11:17;20.20;;;12.20;;
70150;SDS011;57517;43.562;19.540;2023-07-28T14:13:43;8.82;;;6.05;;
70150;SDS011;57517;43.562;19.540;2023-07-28T14:16:09;7.57;;;5.65;;
70150;SDS011;57517;43.562;19.540;2023-07-28T14:18:35;10.15;;;4.75;;
70150;SDS011;57517;43.562;19.540;2023-07-28T14:21:01;5.50;;;3.22;;
70150;SDS011;57517;43.562;19.540;2023-07-28T14:23:27;9.82;;;6.50;;
70150;SDS011;57517;43.562;19.540;2023-07-28T14:25:54;6.93;;;4.28;;
70150;SDS011;57517;43.562;19.540;2023-07-28T14:28:20;7.90;;;5.40;;
70150;SDS011;57517;43.562;19.540;2023-07-28T14:30:47;12.93;;;8.82;;
70150;SDS011;57517;43.562;19.540;2023-07-28T14:33:16;15.77;;;8.13;;
70150;SDS011;57517;43.562;19.540;2023-07-28T14:35:43;5.28;;;4.25;;
70150;SDS011;57517;43.562;19.540;2023-07-28T14:38:10;6.55;;;4.22;;
70150;SDS011;57517;43.562;19.540;2023-07-28T14:40:36;7.60;;;5.07;;
70150;SDS011;57517;43.562;19.540;2023-07-28T14:43:06;9.88;;;6.88;;
70150;SDS011;57517;43.562;19.540;2023-07-28T14:45:32;8.43;;;4.85;;
70150;SDS011;57517;43.562;19.540;2023-07-28T14:47:58;10.43;;;7.60;;
70150;SDS011;57517;43.562;19.540;2023-07-28T14:50:25;9.73;;;6.40;;
70150;SDS011;57517;43.562;19.540;2023-07-28T14:52:51;16.15;;;10.00;;
70150;SDS011;57517;43.562;19.540;2023-07-28T14:55:17;15.63;;;9.10;;
70150;SDS011;57517;43.562;19.540;2023-07-28T14:57:42;10.27;;;7.20;;
70150;SDS011;57517;43.562;19.540;2023-07-28T15:00:08;8.13;;;5.65;;
70150;SDS011;57517;43.562;19.540;2023-07-28T15:02:34;5.65;;;4.10;;
70150;SDS011;57517;43.562;19.540;2023-07-28T15:05:03;11.35;;;4.00;;
70150;SDS011;57517;43.562;19.540;2023-07-28T15:07:29;6.18;;;4.00;;
70150;SDS011;57517;43.562;19.540;2023-07-28T15:09:55;7.35;;;3.67;;
70150;SDS011;57517;43.562;19.540;2023-07-28T15:12:21;6.63;;;4.40;;
70150;SDS011;57517;43.562;19.540;2023-07-28T15:14:47;13.98;;;8.18;;
70150;SDS011;57517;43.562;19.540;2023-07-28T15:17:12;11.32;;;5.05;;
70150;SDS011;57517;43.562;19.540;2023-07-28T15:19:38;6.85;;;4.38;;
70150;SDS011;57517;43.562;19.540;2023-07-28T15:22:04;8.00;;;4.90;;
70150;SDS011;57517;43.562;19.540;2023-07-28T15:24:30;5.10;;;3.63;;
70150;SDS011;57517;43.562;19.540;2023-07-28T15:26:55;11.80;;;7.63;;
70150;SDS011;57517;43.562;19.540;2023-07-28T15:29:21;12.82;;;5.80;;
70150;SDS011;57517;43.562;19.540;2023-07-28T15:31:47;5.78;;;3.85;;
70150;SDS011;57517;43.562;19.540;2023-07-28T15:34:13;5.95;;;3.88;;
70150;SDS011;57517;43.562;19.540;2023-07-28T15:36:38;7.60;;;3.55;;
70150;SDS011;57517;43.562;19.540;2023-07-28T15:39:04;7.32;;;4.03;;
70150;SDS011;57517;43.562;19.540;2023-07-28T15:41:31;7.60;;;5.43;;
70150;SDS011;57517;43.562;19.540;2023-07-28T15:43:57;8.25;;;4.40;;
70150;SDS011;57517;43.562;19.540;2023-07-28T15:46:22;16.60;;;10.65;;
70150;SDS011;57517;43.562;19.540;2023-07-28T15:48:48;12.25;;;7.00;;
70150;SDS011;57517;43.562;19.540;2023-07-28T15:51:14;9.35;;;5.97;;
70150;SDS011;57517;43.562;19.540;2023-07-28T15:53:40;9.82;;;5.60;;
70150;SDS011;57517;43.562;19.540;2023-07-28T15:56:06;16.15;;;8.52;;
70150;SDS011;57517;43.562;19.540;2023-07-28T15:58:32;16.52;;;11.88;;
70150;SDS011;57517;43.562;19.540;2023-07-28T16:00:58;12.05;;;7.80;;
70150;SDS011;57517;43.562;19.540;2023-07-28T16:03:24;20.13;;;13.45;;
70150;SDS011;57517;43.562;19.540;2023-07-28T16:05:50;20.52;;;11.95;;
70150;SDS011;57517;43.562;19.540;2023-07-28T16:08:16;22.50;;;15.82;;
70150;SDS011;57517;43.562;19.540;2023-07-28T16:10:42;13.35;;;10.48;;
70150;SDS011;57517;43.562;19.540;2023-07-28T16:13:08;10.65;;;6.80;;
70150;SDS011;57517;43.562;19.540;2023-07-28T16:15:33;11.63;;;8.27;;
70150;SDS011;57517;43.562;19.540;2023-07-28T16:17:59;10.05;;;6.57;;
70150;SDS011;57517;43.562;19.540;2023-07-28T16:20:25;10.55;;;6.75;;
70150;SDS011;57517;43.562;19.540;2023-07-28T16:22:51;13.52;;;7.57;;
70150;SDS011;57517;43.562;19.540;2023-07-28T16:25:17;9.48;;;6.05;;
70150;SDS011;57517;43.562;19.540;2023-07-28T16:27:43;17.25;;;11.32;;